AirNav   Air Wisconsin pilot careers
 
 950 users online  

73MU Sky-Go Farms Airport
Fulton, Missouri, USA

GOING TO FULTON?


FAA INFORMATION EFFECTIVE 08 NOVEMBER 2018

Location

FAA Identifier: 73MU
Lat/Long: 38-53-08.0950N / 091-58-08.7080W
38-53.134917N / 091-58.145133W
38.8855819 / -91.9690856
(estimated)
Elevation: 878 ft. / 268 m (estimated)
Variation: 02E (1995)
From city: 3 miles NW of FULTON, MO
Time zone: UTC -6 (UTC -5 during Daylight Saving Time)
Zip code: 65251

Airport Operations

Airport use: Private use. Permission required prior to landing
Activation date: 05/1995
Control tower: no
ARTCC: KANSAS CITY CENTER
FSS: COLUMBIA FLIGHT SERVICE STATION
Attendance: UNATNDD
Wind indicator: yes
Segmented circle: no

Airport Communications

WX ASOS at COU (12 nm W): PHONE 573-499-1400
WX AWOS-3PT at MYJ (18 nm NE): 120.575 (573-581-7868)
WX ASOS at JEF (20 nm SW): 133.625 (573-635-9266)

Nearby radio navigation aids

VOR radial/distance  VOR name  Freq  Var
COUr069/12.5COLUMBIA VOR/DME110.2000E
HLVr146/15.6HALLSVILLE VORTAC114.2006E

Airport Services

Runway Information

Runway 9/27

Dimensions: 1800 x 60 ft. / 549 x 18 m
Surface: turf
RUNWAY 9  RUNWAY 27
Traffic pattern: leftright

Runway 18/36

Dimensions: 1800 x 60 ft. / 549 x 18 m
Surface: turf
RUNWAY 18  RUNWAY 36
Traffic pattern: leftright

Airport Ownership and Management from official FAA records

Ownership: Privately-owned
Owner: KAREN DANUSER
4898 STATE ROAD HH
FULTON, MO 65251-3730
Phone 314-642-2473
Manager: KAREN DANUSER
4898 STATE ROAD HH
FULTON, MO 65251-3730
Phone 573-642-2473

Airport Operational Statistics

Aircraft based on the field: 6
Single engine airplanes: 6
    

Instrument Procedures

There are no published instrument procedures at 73MU.

Some nearby airports with instrument procedures:

KFTT - Elton Hensley Memorial Airport (3 nm SW)
KCOU - Columbia Regional Airport (12 nm W)
KMYJ - Mexico Memorial Airport (18 nm NE)
KJEF - Jefferson City Memorial Airport (20 nm SW)
KVER - Jesse Viertel Memorial Airport (34 nm W)
 
Loc | Ops | Rwys | IFR | FBO | Links
Com | Nav | Svcs | Stats | Notes

Kansas City Aviation Department
 
Area around 73MU (Sky-Go Farms Airport)
 
Road maps at: MapQuest Bing Google
 
Aerial photo
WARNING: Photo may not be current or correct
Aerial photo of 73MU (Sky-Go Farms Airport)
Do you have a better or more recent aerial photo of Sky-Go Farms Airport that you would like to share? If so, please send us your photo.

 
Sectional chart

 
Airport distance calculator
Flying to Sky-Go Farms Airport? Find the distance to fly.

From to 73MU

Sunrise and sunset
Times for 18-Nov-2018
 Local
(UTC-6)
 Zulu
(UTC)
Morning civil twilight06:2612:26
Sunrise06:5512:55
Sunset16:5122:51
Evening civil twilight17:2023:20

Current date and time
Zulu (UTC)  18-Nov-2018 19:25:36
Local (UTC-6)  18-Nov-2018 13:25:36
 
METAR
KCOU 
12nm W 
181854Z 36008KT 6SM BR OVC005 00/M02 A3026 RMK AO2 SLP252 T00001017
KMYJ 
18nm NE 
181855Z AUTO 36004KT 7SM OVC006 00/M01 A3027 RMK AO2
KJEF 
19nm SW 
181853Z 36005KT 9SM OVC008 01/M01 A3027 RMK AO2 SLP245 T00111011
TAF
KCOU 
12nm W 
181738Z 1818/1918 02006KT P6SM OVC007 FM191400 VRB04KT P6SM BKN018 FM191600 23006KT P6SM BKN100
NOTAMs
Click for the latest NOTAMs
NOTAMs are issued by the DoD/FAA and will open in a separate window not controlled by AirNav.

 

 
 

Would you like to see your business listed on this page?

 If your business provides an interesting product or service to pilots, flight crews, aircraft, or users of the Sky-Go Farms Airport, you should consider listing it here.  To start the listing process, click on the button below
 
Add a business
 

Other Pages about Sky-Go Farms Airport

Update a link
 
Copyright © AirNav, LLC. All rights reserved. Privacy Policy  Contact